createdAt,value
2017-11-22T00:00:39.384Z,76.19
2017-11-22T00:03:05.746Z,76.17
2017-11-22T00:05:36.994Z,75.81
2017-11-22T00:08:03.315Z,76.30
2017-11-22T00:10:29.641Z,76.04
2017-11-22T00:12:56.041Z,76.21
2017-11-22T00:15:23.708Z,76.02
2017-11-22T00:17:50.888Z,75.98
2017-11-22T00:20:17.290Z,75.58
2017-11-22T00:22:43.779Z,75.55
2017-11-22T00:25:10.179Z,75.59
2017-11-22T00:27:36.461Z,75.41
2017-11-22T00:30:03.664Z,75.20
2017-11-22T00:32:30.006Z,75.71
2017-11-22T00:34:56.326Z,75.35
2017-11-22T00:37:22.654Z,75.59
2017-11-22T00:39:49.130Z,76.05
2017-11-22T00:42:15.442Z,76.24
2017-11-22T00:44:41.771Z,76.45
2017-11-22T00:47:08.123Z,76.81
2017-11-22T00:49:34.453Z,76.80
2017-11-22T00:52:00.844Z,76.49
2017-11-22T00:54:27.259Z,76.06
2017-11-22T00:56:53.693Z,76.06
2017-11-22T00:59:20.081Z,75.90
2017-11-22T01:01:46.414Z,75.95
2017-11-22T01:04:12.730Z,75.54
2017-11-22T01:06:39.114Z,75.12
2017-11-22T01:09:05.476Z,75.25
2017-11-22T01:11:31.804Z,74.90
2017-11-22T01:13:58.136Z,75.22
2017-11-22T01:16:24.503Z,75.36
2017-11-22T01:18:50.813Z,75.53
2017-11-22T01:21:17.205Z,75.47
2017-11-22T01:23:44.313Z,75.07
2017-11-22T01:26:10.684Z,74.27
2017-11-22T01:28:37.019Z,75.02
2017-11-22T01:31:03.352Z,75.14
2017-11-22T01:33:29.680Z,74.87
2017-11-22T01:35:56.758Z,74.76
2017-11-22T01:38:23.122Z,74.83
2017-11-22T01:40:49.440Z,74.69
2017-11-22T01:43:15.869Z,75.03
2017-11-22T01:45:42.230Z,74.74
2017-11-22T01:48:08.536Z,74.58
2017-11-22T01:50:34.882Z,74.37
2017-11-22T01:53:01.176Z,74.20
2017-11-22T01:55:27.474Z,74.54
2017-11-22T01:57:53.752Z,74.30
2017-11-22T02:00:20.078Z,74.42
2017-11-22T02:02:46.413Z,74.37
2017-11-22T02:05:12.773Z,73.98
2017-11-22T02:07:39.093Z,74.61
2017-11-22T02:10:05.395Z,74.21
2017-11-22T02:12:31.804Z,74.36
2017-11-22T02:14:58.550Z,74.14
2017-11-22T02:17:24.918Z,74.29
2017-11-22T02:19:51.357Z,73.79
2017-11-22T02:22:17.687Z,73.84
2017-11-22T02:24:44.698Z,73.36
2017-11-22T02:27:11.006Z,73.53
2017-11-22T02:29:37.297Z,73.21
2017-11-22T02:32:03.633Z,73.40
2017-11-22T02:34:30.013Z,73.81
2017-11-22T02:36:56.398Z,74.29
2017-11-22T02:39:22.757Z,74.38
2017-11-22T02:41:49.806Z,74.27
2017-11-22T02:44:16.110Z,73.68
2017-11-22T02:46:42.409Z,73.79
2017-11-22T02:49:08.770Z,73.42
2017-11-22T02:51:35.101Z,73.20
2017-11-22T02:54:01.408Z,73.48
2017-11-22T02:56:27.766Z,73.25
2017-11-22T02:58:54.226Z,72.96
2017-11-22T03:01:20.604Z,73.30
2017-11-22T03:03:46.961Z,73.31
2017-11-22T03:06:13.259Z,73.40
2017-11-22T03:08:39.597Z,73.43
2017-11-22T03:11:05.913Z,73.48
2017-11-22T03:13:32.218Z,73.33
2017-11-22T03:15:59.244Z,73.51
2017-11-22T03:18:25.583Z,73.46
2017-11-22T03:20:51.912Z,73.68
2017-11-22T03:23:18.976Z,73.55
2017-11-22T03:25:45.366Z,73.35
2017-11-22T03:28:11.655Z,73.33
2017-11-22T03:30:39.083Z,73.21
2017-11-22T03:33:05.383Z,73.49
2017-11-22T03:35:31.710Z,73.39
2017-11-22T03:37:58.098Z,73.28
2017-11-22T03:40:24.443Z,73.12
2017-11-22T03:42:51.012Z,72.29
2017-11-22T03:45:17.335Z,71.82
2017-11-22T03:47:43.701Z,72.38
2017-11-22T03:50:14.804Z,72.30
2017-11-22T03:52:42.048Z,71.99
2017-11-22T03:55:08.441Z,72.51
2017-11-22T03:57:34.800Z,72.24
2017-11-22T04:00:01.135Z,71.76
2017-11-22T04:02:29.339Z,72.30
2017-11-22T04:04:55.735Z,72.49
2017-11-22T04:07:22.130Z,72.45
2017-11-22T04:09:48.489Z,71.74
2017-11-22T04:12:14.835Z,71.68
2017-11-22T04:14:41.171Z,71.66
2017-11-22T04:17:07.519Z,71.78
2017-11-22T04:19:38.669Z,71.51
2017-11-22T04:22:05.039Z,71.83
2017-11-22T04:24:31.409Z,71.57
2017-11-22T04:26:57.763Z,71.30
2017-11-22T04:29:24.118Z,70.98
2017-11-22T04:31:50.444Z,70.33
2017-11-22T04:34:16.766Z,69.26
2017-11-22T04:36:43.091Z,69.63
2017-11-22T04:39:09.420Z,69.76
2017-11-22T04:41:35.756Z,69.27
2017-11-22T04:44:02.043Z,69.40
2017-11-22T04:46:29.058Z,68.47
2017-11-22T04:48:55.351Z,68.00
2017-11-22T04:51:21.644Z,67.69
2017-11-22T04:53:48.766Z,66.86
2017-11-22T04:56:15.070Z,67.37
2017-11-22T04:58:41.373Z,67.50
2017-11-22T05:01:07.653Z,67.52
2017-11-22T05:03:34.003Z,68.42
2017-11-22T05:06:00.358Z,69.01
2017-11-22T05:08:26.645Z,68.81
2017-11-22T05:10:53.079Z,69.22
2017-11-22T05:13:19.451Z,69.17
2017-11-22T05:15:46.537Z,69.00
2017-11-22T05:18:12.894Z,68.74
2017-11-22T05:20:39.258Z,69.24
2017-11-22T05:23:06.284Z,69.31
2017-11-22T05:25:32.633Z,69.42
2017-11-22T05:27:59.710Z,70.02
2017-11-22T05:30:26.088Z,70.10
2017-11-22T05:32:52.461Z,69.96
2017-11-22T05:35:18.936Z,70.05
2017-11-22T05:37:45.244Z,70.19
2017-11-22T05:40:11.569Z,70.32
2017-11-22T05:42:37.923Z,70.54
2017-11-22T05:45:04.187Z,70.75
2017-11-22T05:47:37.601Z,70.62
2017-11-22T05:50:04.672Z,70.89
2017-11-22T05:52:30.954Z,71.05
2017-11-22T05:54:57.297Z,70.72
2017-11-22T05:57:23.616Z,71.18
2017-11-22T05:59:50.006Z,71.24
2017-11-22T06:02:16.390Z,71.24
2017-11-22T06:04:42.684Z,71.32
2017-11-22T06:07:09.022Z,71.22
2017-11-22T06:09:35.334Z,71.04
2017-11-22T06:12:01.677Z,71.35
2017-11-22T06:14:28.040Z,71.33
2017-11-22T06:16:55.190Z,70.68
2017-11-22T06:19:21.527Z,70.96
2017-11-22T06:21:54.798Z,70.79
2017-11-22T06:24:21.152Z,70.57
2017-11-22T06:26:47.474Z,70.05
2017-11-22T06:29:13.826Z,69.70
2017-11-22T06:31:40.157Z,69.12
2017-11-22T06:34:07.228Z,69.08
2017-11-22T06:36:33.519Z,68.21
2017-11-22T06:39:04.846Z,67.41
2017-11-22T06:41:31.984Z,66.48
2017-11-22T06:43:58.331Z,66.18
2017-11-22T06:46:24.682Z,66.05
2017-11-22T06:48:50.997Z,66.20
2017-11-22T06:51:17.354Z,65.90
2017-11-22T06:53:43.660Z,64.45
2017-11-22T06:56:10.022Z,63.77
2017-11-22T06:58:37.076Z,64.09
2017-11-22T07:01:03.950Z,64.16
2017-11-22T07:03:32.430Z,63.73
2017-11-22T07:05:58.824Z,64.24
2017-11-22T07:08:25.227Z,65.03
2017-11-22T07:10:51.557Z,65.31
2017-11-22T07:13:17.886Z,65.41
2017-11-22T07:15:44.322Z,65.42
2017-11-22T07:18:10.703Z,65.68
2017-11-22T07:20:37.791Z,65.86
2017-11-22T07:23:04.163Z,66.07
2017-11-22T07:25:31.261Z,65.66
2017-11-22T07:27:57.591Z,66.07
2017-11-22T07:30:23.882Z,66.06
2017-11-22T07:32:50.849Z,65.79
2017-11-22T07:35:17.952Z,65.74
2017-11-22T07:37:50.108Z,65.50
2017-11-22T07:40:16.398Z,65.67
2017-11-22T07:42:42.825Z,65.60
2017-11-22T07:45:09.834Z,65.52
2017-11-22T07:47:36.211Z,65.05
2017-11-22T07:50:02.506Z,65.07
2017-11-22T07:52:28.809Z,64.98
2017-11-22T07:54:55.200Z,64.76
2017-11-22T07:57:26.199Z,64.80
2017-11-22T07:59:52.533Z,64.47
2017-11-22T08:02:18.880Z,64.42
2017-11-22T08:04:45.207Z,65.59
2017-11-22T08:07:11.511Z,65.14
2017-11-22T08:09:38.564Z,65.36
2017-11-22T08:12:05.829Z,65.09
2017-11-22T08:14:32.162Z,65.12
2017-11-22T08:17:01.463Z,65.00
2017-11-22T08:19:27.877Z,64.67
2017-11-22T08:21:54.218Z,65.07
2017-11-22T08:24:20.983Z,64.54
2017-11-22T08:26:47.291Z,64.58
2017-11-22T08:29:13.614Z,64.63
2017-11-22T08:31:40.689Z,65.00
2017-11-22T08:34:07.069Z,64.45
2017-11-22T08:36:33.465Z,64.51
2017-11-22T08:39:00.558Z,64.52
2017-11-22T08:41:26.867Z,64.63
2017-11-22T08:43:54.913Z,64.57
2017-11-22T08:46:21.282Z,64.93
2017-11-22T08:48:47.970Z,64.32
2017-11-22T08:51:14.278Z,63.29
2017-11-22T08:53:40.628Z,62.75
2017-11-22T08:56:12.967Z,62.61
2017-11-22T08:58:39.237Z,62.09
2017-11-22T09:01:06.318Z,61.46
2017-11-22T09:03:39.843Z,59.89
2017-11-22T09:06:12.246Z,59.91
2017-11-22T09:08:38.662Z,60.14
2017-11-22T09:11:04.946Z,60.83
2017-11-22T09:13:32.081Z,60.16
2017-11-22T09:15:58.458Z,60.45
2017-11-22T09:18:30.696Z,61.02
2017-11-22T09:20:57.895Z,61.25
2017-11-22T09:23:24.312Z,61.12
2017-11-22T09:25:50.593Z,60.88
2017-11-22T09:28:16.926Z,60.73
2017-11-22T09:30:49.493Z,62.47
2017-11-22T09:33:16.787Z,62.79
2017-11-22T09:35:43.087Z,62.24
2017-11-22T09:38:09.379Z,62.16
2017-11-22T09:40:35.728Z,62.95
2017-11-22T09:43:02.121Z,63.96
2017-11-22T09:45:28.498Z,63.35
2017-11-22T09:47:54.828Z,63.68
2017-11-22T09:50:21.255Z,63.98
2017-11-22T09:52:47.622Z,64.19
2017-11-22T09:55:14.036Z,64.60
2017-11-22T09:57:40.419Z,64.35
2017-11-22T10:00:06.686Z,64.61
2017-11-22T10:02:32.979Z,64.49
2017-11-22T10:04:59.279Z,63.37
2017-11-22T10:07:26.335Z,62.81
2017-11-22T10:09:53.392Z,63.45
2017-11-22T10:12:21.562Z,62.60
2017-11-22T10:14:48.658Z,63.20
2017-11-22T10:17:15.296Z,62.95
2017-11-22T10:19:42.797Z,62.91
2017-11-22T10:22:09.898Z,63.02
2017-11-22T10:24:42.503Z,62.29
2017-11-22T10:27:15.139Z,61.58
2017-11-22T10:29:45.492Z,61.10
2017-11-22T10:32:17.950Z,60.12
2017-11-22T10:34:44.308Z,60.38
2017-11-22T10:37:10.600Z,60.95
2017-11-22T10:39:37.198Z,60.64
2017-11-22T10:42:03.530Z,60.30
2017-11-22T10:44:29.854Z,61.22
2017-11-22T10:46:56.181Z,61.17
2017-11-22T10:49:22.558Z,59.71
2017-11-22T10:51:48.924Z,59.34
2017-11-22T10:54:15.297Z,59.38
2017-11-22T10:56:42.455Z,59.87
2017-11-22T10:59:09.657Z,60.30
2017-11-22T11:01:36.123Z,60.33
2017-11-22T11:04:02.452Z,59.93
2017-11-22T11:06:28.748Z,58.92
2017-11-22T11:08:55.167Z,60.00
2017-11-22T11:11:21.467Z,59.60
2017-11-22T11:13:47.879Z,59.36
2017-11-22T11:16:14.200Z,58.86
2017-11-22T11:18:40.608Z,57.23
2017-11-22T11:21:06.966Z,58.06
2017-11-22T11:23:33.348Z,58.29
2017-11-22T11:25:59.722Z,58.69
2017-11-22T11:28:26.233Z,58.06
2017-11-22T11:30:52.546Z,57.95
2017-11-22T11:33:18.914Z,58.01
2017-11-22T11:36:03.702Z,58.34
2017-11-22T11:38:30.137Z,59.19
2017-11-22T11:40:56.639Z,58.60
2017-11-22T11:43:22.997Z,58.49
2017-11-22T11:45:49.304Z,58.37
2017-11-22T11:48:15.717Z,58.33
2017-11-22T11:50:42.022Z,58.64
2017-11-22T11:53:09.143Z,58.85
2017-11-22T11:55:35.492Z,58.42
2017-11-22T11:58:01.878Z,57.35
2017-11-22T12:00:28.941Z,57.00
2017-11-22T12:02:55.359Z,57.93
2017-11-22T12:05:21.750Z,56.74
2017-11-22T12:07:48.140Z,56.70
2017-11-22T12:10:14.448Z,56.44
2017-11-22T12:12:40.807Z,57.19
2017-11-22T12:15:07.218Z,57.28
2017-11-22T12:17:35.397Z,56.74
2017-11-22T12:20:01.749Z,56.01
2017-11-22T12:22:33.794Z,55.60
2017-11-22T12:25:00.211Z,54.55
2017-11-22T12:27:26.840Z,53.74
2017-11-22T12:29:53.656Z,53.58
2017-11-22T12:32:21.897Z,51.88
2017-11-22T12:34:55.418Z,50.45
2017-11-22T12:37:21.875Z,50.98
2017-11-22T12:39:48.405Z,49.33
2017-11-22T12:42:14.756Z,45.48
2017-11-22T12:44:41.295Z,43.76
2017-11-22T12:47:07.795Z,45.19
2017-11-22T12:49:34.950Z,46.46
2017-11-22T12:52:02.173Z,46.83
2017-11-22T12:54:28.532Z,45.38
2017-11-22T12:56:54.926Z,45.46
2017-11-22T12:59:21.236Z,44.79
2017-11-22T13:01:47.560Z,43.87
2017-11-22T13:04:13.921Z,42.94
2017-11-22T13:06:40.316Z,42.55
2017-11-22T13:09:06.614Z,41.47
2017-11-22T13:11:34.303Z,41.71
2017-11-22T13:14:06.963Z,41.41
2017-11-22T13:16:34.214Z,41.07
2017-11-22T13:19:00.525Z,42.60
2017-11-22T13:21:26.998Z,41.69
2017-11-22T13:23:53.314Z,41.70
2017-11-22T13:26:20.356Z,42.78
2017-11-22T13:28:47.094Z,44.71
2017-11-22T13:31:13.517Z,46.63
2017-11-22T13:33:39.877Z,47.93
2017-11-22T13:36:06.294Z,49.12
2017-11-22T13:38:33.511Z,50.89
2017-11-22T13:41:00.232Z,50.80
2017-11-22T13:43:26.554Z,50.82
2017-11-22T13:45:52.831Z,50.53
2017-11-22T13:48:19.174Z,50.23
2017-11-22T13:50:45.576Z,50.35
2017-11-22T13:53:12.857Z,50.49
2017-11-22T13:55:39.513Z,51.26
2017-11-22T13:58:06.584Z,51.29
2017-11-22T14:00:32.945Z,51.19
2017-11-22T14:02:59.385Z,51.45
2017-11-22T14:05:25.843Z,51.43
2017-11-22T14:07:52.583Z,51.12
2017-11-22T14:10:19.321Z,51.92
2017-11-22T14:12:45.873Z,51.86
2017-11-22T14:15:13.110Z,51.46
2017-11-22T14:17:39.446Z,51.10
2017-11-22T14:20:07.155Z,50.79
2017-11-22T14:22:33.474Z,51.82
2017-11-22T14:24:59.886Z,51.70
2017-11-22T14:27:26.198Z,51.12
2017-11-22T14:29:52.718Z,51.32
2017-11-22T14:32:19.095Z,51.05
2017-11-22T14:34:45.401Z,51.63
2017-11-22T14:37:11.720Z,52.53
2017-11-22T14:39:38.891Z,53.64
2017-11-22T14:42:06.182Z,53.99
2017-11-22T14:44:32.564Z,54.90
2017-11-22T14:46:58.980Z,55.65
2017-11-22T14:49:25.357Z,56.59
2017-11-22T14:51:52.485Z,57.10
2017-11-22T14:54:18.993Z,56.85
2017-11-22T14:56:45.337Z,56.87
2017-11-22T14:59:11.702Z,57.11
2017-11-22T15:01:38.224Z,57.14
2017-11-22T15:04:04.638Z,57.32
2017-11-22T15:06:31.116Z,57.66
2017-11-22T15:08:57.526Z,57.82
2017-11-22T15:11:23.838Z,57.36
2017-11-22T15:13:50.190Z,57.36
2017-11-22T15:16:16.543Z,57.06
2017-11-22T15:18:43.158Z,56.97
2017-11-22T15:21:09.497Z,56.55
2017-11-22T15:23:36.286Z,56.76
2017-11-22T15:26:03.663Z,57.35
2017-11-22T15:28:30.541Z,57.84
2017-11-22T15:30:57.115Z,58.19
2017-11-22T15:33:24.302Z,58.13
2017-11-22T15:35:50.628Z,58.58
2017-11-22T15:38:16.917Z,59.07
2017-11-22T15:40:43.271Z,59.37
2017-11-22T15:43:09.649Z,59.89
2017-11-22T15:45:35.979Z,59.01
2017-11-22T15:48:02.288Z,59.05
2017-11-22T15:50:28.730Z,59.25
2017-11-22T15:52:55.426Z,59.77
2017-11-22T15:55:22.308Z,60.07
2017-11-22T15:57:48.777Z,60.53
2017-11-22T16:00:15.495Z,60.90
2017-11-22T16:02:42.502Z,61.42
2017-11-22T16:05:09.039Z,62.08
2017-11-22T16:07:35.360Z,61.96
2017-11-22T16:10:01.727Z,62.35
2017-11-22T16:12:28.813Z,62.78
2017-11-22T16:14:56.179Z,62.49
2017-11-22T16:17:23.736Z,62.68
2017-11-22T16:19:50.145Z,63.07
2017-11-22T16:22:16.620Z,63.61
2017-11-22T16:24:42.957Z,63.98
2017-11-22T16:27:09.287Z,64.15
2017-11-22T16:29:35.615Z,64.72
2017-11-22T16:32:02.011Z,65.08
2017-11-22T16:34:28.500Z,65.54
2017-11-22T16:36:54.843Z,65.91
2017-11-22T16:39:21.115Z,66.31
2017-11-22T16:41:48.154Z,66.67
2017-11-22T16:44:14.556Z,67.18
2017-11-22T16:46:40.917Z,67.64
2017-11-22T16:49:07.272Z,67.89
2017-11-22T16:51:33.615Z,68.21
2017-11-22T16:53:59.980Z,68.50
2017-11-22T16:56:26.379Z,68.87
2017-11-22T16:58:52.892Z,69.39
2017-11-22T17:01:19.319Z,70.49
2017-11-22T17:03:45.963Z,69.83
2017-11-22T17:06:12.994Z,69.52
2017-11-22T17:08:39.833Z,70.00
2017-11-22T17:11:06.848Z,70.72
2017-11-22T17:13:33.226Z,70.96
2017-11-22T17:16:00.183Z,71.84
2017-11-22T17:18:28.003Z,71.66
2017-11-22T17:20:54.980Z,71.72
2017-11-22T17:23:22.625Z,71.84
2017-11-22T17:25:49.216Z,72.01
2017-11-22T17:28:15.669Z,72.12
2017-11-22T17:30:42.060Z,72.12
2017-11-22T17:33:09.095Z,72.15
2017-11-22T17:35:35.433Z,72.14
2017-11-22T17:38:01.874Z,72.12
2017-11-22T17:40:29.886Z,72.38
2017-11-22T17:42:56.203Z,72.41
2017-11-22T17:45:22.575Z,72.61
2017-11-22T17:47:48.884Z,72.91
2017-11-22T17:50:15.164Z,73.00
2017-11-22T17:52:41.560Z,73.22
2017-11-22T17:55:07.901Z,73.22
2017-11-22T17:57:34.818Z,73.56
2017-11-22T18:00:01.760Z,73.54
2017-11-22T18:02:28.499Z,73.58
2017-11-22T18:04:55.707Z,73.54
2017-11-22T18:07:22.749Z,73.81
2017-11-22T18:09:49.100Z,73.70
2017-11-22T18:12:16.212Z,73.82
2017-11-22T18:14:42.712Z,73.96
2017-11-22T18:17:09.159Z,73.90
2017-11-22T18:19:35.538Z,74.33
2017-11-22T18:22:03.714Z,74.83
2017-11-22T18:24:30.845Z,74.83
2017-11-22T18:26:57.196Z,74.71
2017-11-22T18:29:23.688Z,74.50
2017-11-22T18:31:50.088Z,74.64
2017-11-22T18:34:16.378Z,74.90
2017-11-22T18:36:42.807Z,75.13
2017-11-22T18:39:09.888Z,75.44
2017-11-22T18:41:36.932Z,75.08
2017-11-22T18:44:03.983Z,75.12
2017-11-22T18:46:31.060Z,75.30
2017-11-22T18:48:57.798Z,75.29
2017-11-22T18:51:24.218Z,75.47
2017-11-22T18:53:50.610Z,75.56
2017-11-22T18:56:16.941Z,75.60
2017-11-22T18:58:43.403Z,75.73
2017-11-22T19:01:10.932Z,75.44
2017-11-22T19:03:37.706Z,75.91
2017-11-22T19:06:04.942Z,75.95
2017-11-22T19:08:31.771Z,75.85
2017-11-22T19:10:58.110Z,76.08
2017-11-22T19:13:25.182Z,75.67
2017-11-22T19:15:51.865Z,75.95
2017-11-22T19:18:18.481Z,75.98
2017-11-22T19:20:44.827Z,75.99
2017-11-22T19:23:11.602Z,75.95
2017-11-22T19:25:37.923Z,75.72
2017-11-22T19:28:05.008Z,75.65
2017-11-22T19:30:32.146Z,75.89
2017-11-22T19:32:58.821Z,75.76
2017-11-22T19:35:25.158Z,75.50
2017-11-22T19:37:51.535Z,75.82
2017-11-22T19:40:18.516Z,75.56
2017-11-22T19:42:45.213Z,76.04
2017-11-22T19:45:11.839Z,75.86
2017-11-22T19:47:38.602Z,75.55
2017-11-22T19:50:05.572Z,76.03
2017-11-22T19:52:32.416Z,75.76
2017-11-22T19:55:00.359Z,75.85
2017-11-22T19:57:26.825Z,75.92
2017-11-22T19:59:53.918Z,75.84
2017-11-22T20:02:20.282Z,75.65
2017-11-22T20:04:46.653Z,75.77
2017-11-22T20:07:31.544Z,75.90
2017-11-22T20:09:57.899Z,75.41
2017-11-22T20:12:25.424Z,75.54
2017-11-22T20:14:53.186Z,75.83
2017-11-22T20:17:20.787Z,76.02
2017-11-22T20:19:47.459Z,76.05
2017-11-22T20:22:14.869Z,75.77
2017-11-22T20:24:41.927Z,75.89
2017-11-22T20:27:09.999Z,76.09
2017-11-22T20:29:36.413Z,76.00
2017-11-22T20:32:03.608Z,75.28
2017-11-22T20:34:31.086Z,75.37
2017-11-22T20:36:58.215Z,75.70
2017-11-22T20:39:24.564Z,75.78
2017-11-22T20:41:53.640Z,76.20
2017-11-22T20:44:20.312Z,75.99
2017-11-22T20:46:47.585Z,76.04
2017-11-22T20:49:14.026Z,75.83
2017-11-22T20:51:40.371Z,75.71
2017-11-22T20:54:06.759Z,75.88
2017-11-22T20:56:33.177Z,75.82
2017-11-22T20:59:00.237Z,75.99
2017-11-22T21:01:27.314Z,75.68
2017-11-22T21:03:53.678Z,75.76
2017-11-22T21:06:20.194Z,75.43
2017-11-22T21:08:46.518Z,75.89
2017-11-22T21:11:13.028Z,75.84
2017-11-22T21:13:40.222Z,75.86
2017-11-22T21:16:06.530Z,75.80
2017-11-22T21:18:32.792Z,75.57
2017-11-22T21:20:59.090Z,75.83
2017-11-22T21:23:25.392Z,76.02
2017-11-22T21:25:53.366Z,76.51
2017-11-22T21:28:19.646Z,76.55
2017-11-22T21:30:46.055Z,76.49
2017-11-22T21:33:12.457Z,76.04
2017-11-22T21:35:38.789Z,75.98
2017-11-22T21:38:06.009Z,76.14
2017-11-22T21:40:32.313Z,76.09
2017-11-22T21:42:58.573Z,76.05
2017-11-22T21:45:24.893Z,76.53
2017-11-22T21:47:51.529Z,76.68
2017-11-22T21:50:17.903Z,76.43
2017-11-22T21:52:44.986Z,77.28
2017-11-22T21:55:11.349Z,77.31
2017-11-22T21:57:37.739Z,76.71
2017-11-22T22:00:04.040Z,77.02
2017-11-22T22:02:31.093Z,77.24
2017-11-22T22:04:57.381Z,77.79
2017-11-22T22:07:23.683Z,77.99
2017-11-22T22:09:50.133Z,77.87
2017-11-22T22:12:16.442Z,77.89
2017-11-22T22:14:42.806Z,78.17
2017-11-22T22:17:09.138Z,78.29
2017-11-22T22:19:35.483Z,78.37
2017-11-22T22:22:01.943Z,78.58
2017-11-22T22:24:28.309Z,78.31
2017-11-22T22:26:54.663Z,77.88
2017-11-22T22:29:21.043Z,78.02
2017-11-22T22:31:48.092Z,78.32
2017-11-22T22:34:15.157Z,78.75
2017-11-22T22:36:42.141Z,78.77
2017-11-22T22:39:08.441Z,78.38
2017-11-22T22:41:34.705Z,78.93
2017-11-22T22:44:01.032Z,79.10
2017-11-22T22:46:27.345Z,78.53
2017-11-22T22:48:53.691Z,78.96
2017-11-22T22:51:20.042Z,78.63
2017-11-22T22:53:46.436Z,78.26
2017-11-22T22:56:12.740Z,77.99
2017-11-22T22:58:39.832Z,78.14
2017-11-22T23:01:06.175Z,78.20
2017-11-22T23:03:32.485Z,77.75
2017-11-22T23:05:58.792Z,77.58
2017-11-22T23:08:25.201Z,77.67
2017-11-22T23:10:52.243Z,77.50
2017-11-22T23:13:18.498Z,77.33
2017-11-22T23:15:44.828Z,77.29
2017-11-22T23:18:11.138Z,77.51
2017-11-22T23:20:38.230Z,77.65
2017-11-22T23:23:04.571Z,77.64
2017-11-22T23:25:30.897Z,77.82
2017-11-22T23:27:57.273Z,77.72
2017-11-22T23:30:23.595Z,77.75
2017-11-22T23:32:49.902Z,77.70
2017-11-22T23:35:16.211Z,77.46
2017-11-22T23:37:42.548Z,77.49
2017-11-22T23:40:08.871Z,77.80
2017-11-22T23:42:35.281Z,77.83
2017-11-22T23:45:02.365Z,77.81
2017-11-22T23:47:28.815Z,77.80
2017-11-22T23:49:55.147Z,78.15
2017-11-22T23:52:21.448Z,78.17
2017-11-22T23:54:47.775Z,77.99
2017-11-22T23:57:14.125Z,78.55
2017-11-22T23:59:40.439Z,78.54
